sensor_id;sensor_type;location;lat;lon;timestamp;P1;durP1;ratioP1;P2;durP2;ratioP2
69301;SDS011;56689;47.842;8.974;2024-01-30T00:01:53;37.17;;;15.97;;
69301;SDS011;56689;47.842;8.974;2024-01-30T00:04:19;33.20;;;15.80;;
69301;SDS011;56689;47.842;8.974;2024-01-30T00:06:44;32.25;;;16.08;;
69301;SDS011;56689;47.842;8.974;2024-01-30T00:09:10;32.93;;;14.90;;
69301;SDS011;56689;47.842;8.974;2024-01-30T00:11:36;36.93;;;16.63;;
69301;SDS011;56689;47.842;8.974;2024-01-30T00:14:01;37.22;;;17.27;;
69301;SDS011;56689;47.842;8.974;2024-01-30T00:16:28;37.17;;;17.98;;
69301;SDS011;56689;47.842;8.974;2024-01-30T00:18:53;39.70;;;18.20;;
69301;SDS011;56689;47.842;8.974;2024-01-30T00:21:19;44.33;;;20.13;;
69301;SDS011;56689;47.842;8.974;2024-01-30T00:23:45;45.87;;;21.03;;
69301;SDS011;56689;47.842;8.974;2024-01-30T00:26:11;48.38;;;21.13;;
69301;SDS011;56689;47.842;8.974;2024-01-30T00:28:37;42.37;;;19.67;;
69301;SDS011;56689;47.842;8.974;2024-01-30T00:31:05;43.90;;;19.85;;
69301;SDS011;56689;47.842;8.974;2024-01-30T00:33:31;44.30;;;18.80;;
69301;SDS011;56689;47.842;8.974;2024-01-30T00:35:56;42.83;;;18.70;;
69301;SDS011;56689;47.842;8.974;2024-01-30T00:38:22;39.83;;;17.80;;
69301;SDS011;56689;47.842;8.974;2024-01-30T00:40:47;38.40;;;18.52;;
69301;SDS011;56689;47.842;8.974;2024-01-30T00:43:13;34.33;;;16.17;;
69301;SDS011;56689;47.842;8.974;2024-01-30T00:45:39;32.72;;;15.15;;
69301;SDS011;56689;47.842;8.974;2024-01-30T00:48:04;29.33;;;14.07;;
69301;SDS011;56689;47.842;8.974;2024-01-30T00:50:30;28.27;;;14.33;;
69301;SDS011;56689;47.842;8.974;2024-01-30T00:52:55;28.30;;;13.55;;
69301;SDS011;56689;47.842;8.974;2024-01-30T00:55:20;27.00;;;12.52;;
69301;SDS011;56689;47.842;8.974;2024-01-30T00:57:46;26.63;;;12.97;;
69301;SDS011;56689;47.842;8.974;2024-01-30T01:00:12;24.57;;;12.77;;
69301;SDS011;56689;47.842;8.974;2024-01-30T01:02:41;26.92;;;12.73;;
69301;SDS011;56689;47.842;8.974;2024-01-30T01:05:06;25.03;;;12.63;;
69301;SDS011;56689;47.842;8.974;2024-01-30T01:07:31;23.20;;;11.95;;
69301;SDS011;56689;47.842;8.974;2024-01-30T01:09:57;22.27;;;12.00;;
69301;SDS011;56689;47.842;8.974;2024-01-30T01:12:22;25.83;;;12.27;;
69301;SDS011;56689;47.842;8.974;2024-01-30T01:14:48;25.83;;;12.67;;
69301;SDS011;56689;47.842;8.974;2024-01-30T01:17:13;24.57;;;12.60;;
69301;SDS011;56689;47.842;8.974;2024-01-30T01:19:38;22.37;;;11.47;;
69301;SDS011;56689;47.842;8.974;2024-01-30T01:22:04;26.73;;;12.63;;
69301;SDS011;56689;47.842;8.974;2024-01-30T01:24:32;24.03;;;12.17;;
69301;SDS011;56689;47.842;8.974;2024-01-30T01:26:58;25.67;;;12.82;;
69301;SDS011;56689;47.842;8.974;2024-01-30T01:29:24;22.43;;;11.73;;
69301;SDS011;56689;47.842;8.974;2024-01-30T01:31:56;24.80;;;12.35;;
69301;SDS011;56689;47.842;8.974;2024-01-30T01:34:21;28.48;;;13.88;;
69301;SDS011;56689;47.842;8.974;2024-01-30T01:36:47;26.60;;;13.00;;
69301;SDS011;56689;47.842;8.974;2024-01-30T01:39:12;25.83;;;12.47;;
69301;SDS011;56689;47.842;8.974;2024-01-30T01:41:37;27.77;;;12.50;;
69301;SDS011;56689;47.842;8.974;2024-01-30T01:44:03;25.88;;;12.52;;
69301;SDS011;56689;47.842;8.974;2024-01-30T01:46:30;29.20;;;13.47;;
69301;SDS011;56689;47.842;8.974;2024-01-30T01:48:58;24.50;;;12.52;;
69301;SDS011;56689;47.842;8.974;2024-01-30T01:51:24;28.53;;;13.27;;
69301;SDS011;56689;47.842;8.974;2024-01-30T01:53:52;23.08;;;12.15;;
69301;SDS011;56689;47.842;8.974;2024-01-30T01:56:19;22.55;;;11.80;;
69301;SDS011;56689;47.842;8.974;2024-01-30T01:58:44;23.83;;;12.00;;
69301;SDS011;56689;47.842;8.974;2024-01-30T02:01:11;26.33;;;11.65;;
69301;SDS011;56689;47.842;8.974;2024-01-30T02:03:38;23.63;;;12.40;;
69301;SDS011;56689;47.842;8.974;2024-01-30T02:06:06;23.63;;;11.67;;
69301;SDS011;56689;47.842;8.974;2024-01-30T02:08:31;22.60;;;11.95;;
69301;SDS011;56689;47.842;8.974;2024-01-30T02:10:57;24.45;;;12.38;;
69301;SDS011;56689;47.842;8.974;2024-01-30T02:13:23;23.77;;;11.60;;
69301;SDS011;56689;47.842;8.974;2024-01-30T02:15:48;26.97;;;13.40;;
69301;SDS011;56689;47.842;8.974;2024-01-30T02:18:15;27.25;;;13.52;;
69301;SDS011;56689;47.842;8.974;2024-01-30T02:20:40;30.07;;;14.10;;
69301;SDS011;56689;47.842;8.974;2024-01-30T02:23:07;30.67;;;14.38;;
69301;SDS011;56689;47.842;8.974;2024-01-30T02:25:36;27.35;;;13.40;;
69301;SDS011;56689;47.842;8.974;2024-01-30T02:28:04;29.47;;;12.70;;
69301;SDS011;56689;47.842;8.974;2024-01-30T02:30:29;26.83;;;13.20;;
69301;SDS011;56689;47.842;8.974;2024-01-30T02:32:55;25.87;;;13.37;;
69301;SDS011;56689;47.842;8.974;2024-01-30T02:35:20;27.87;;;13.37;;
69301;SDS011;56689;47.842;8.974;2024-01-30T02:37:45;31.20;;;13.37;;
69301;SDS011;56689;47.842;8.974;2024-01-30T02:40:11;26.40;;;13.23;;
69301;SDS011;56689;47.842;8.974;2024-01-30T02:42:36;26.40;;;11.90;;
69301;SDS011;56689;47.842;8.974;2024-01-30T02:45:02;25.13;;;12.40;;
69301;SDS011;56689;47.842;8.974;2024-01-30T02:47:27;28.60;;;12.97;;
69301;SDS011;56689;47.842;8.974;2024-01-30T02:49:52;29.30;;;13.63;;
69301;SDS011;56689;47.842;8.974;2024-01-30T02:52:18;30.63;;;13.30;;
69301;SDS011;56689;47.842;8.974;2024-01-30T02:54:44;28.20;;;13.63;;
69301;SDS011;56689;47.842;8.974;2024-01-30T02:57:09;27.77;;;13.03;;
69301;SDS011;56689;47.842;8.974;2024-01-30T02:59:35;28.23;;;13.65;;
69301;SDS011;56689;47.842;8.974;2024-01-30T03:02:01;23.20;;;12.38;;
69301;SDS011;56689;47.842;8.974;2024-01-30T03:04:26;28.92;;;13.43;;
69301;SDS011;56689;47.842;8.974;2024-01-30T03:06:52;28.08;;;12.80;;
69301;SDS011;56689;47.842;8.974;2024-01-30T03:09:20;26.58;;;13.30;;
69301;SDS011;56689;47.842;8.974;2024-01-30T03:11:45;24.43;;;12.70;;
69301;SDS011;56689;47.842;8.974;2024-01-30T03:14:11;26.57;;;13.33;;
69301;SDS011;56689;47.842;8.974;2024-01-30T03:16:37;25.50;;;12.07;;
69301;SDS011;56689;47.842;8.974;2024-01-30T03:19:03;25.42;;;11.80;;
69301;SDS011;56689;47.842;8.974;2024-01-30T03:21:28;26.30;;;12.60;;
69301;SDS011;56689;47.842;8.974;2024-01-30T03:23:54;25.90;;;11.90;;
69301;SDS011;56689;47.842;8.974;2024-01-30T03:26:19;26.20;;;12.73;;
69301;SDS011;56689;47.842;8.974;2024-01-30T03:28:45;29.17;;;13.68;;
69301;SDS011;56689;47.842;8.974;2024-01-30T03:31:10;30.48;;;13.45;;
69301;SDS011;56689;47.842;8.974;2024-01-30T03:33:39;27.67;;;13.13;;
69301;SDS011;56689;47.842;8.974;2024-01-30T03:36:04;31.20;;;13.27;;
69301;SDS011;56689;47.842;8.974;2024-01-30T03:38:30;26.33;;;12.77;;
69301;SDS011;56689;47.842;8.974;2024-01-30T03:40:57;27.80;;;12.88;;
69301;SDS011;56689;47.842;8.974;2024-01-30T03:43:23;28.38;;;13.13;;
69301;SDS011;56689;47.842;8.974;2024-01-30T03:45:48;29.43;;;12.97;;
69301;SDS011;56689;47.842;8.974;2024-01-30T03:48:14;29.00;;;13.00;;
69301;SDS011;56689;47.842;8.974;2024-01-30T03:50:39;28.30;;;12.83;;
69301;SDS011;56689;47.842;8.974;2024-01-30T03:53:05;27.33;;;13.05;;
69301;SDS011;56689;47.842;8.974;2024-01-30T03:55:30;26.03;;;12.70;;
69301;SDS011;56689;47.842;8.974;2024-01-30T03:57:55;24.93;;;12.60;;
69301;SDS011;56689;47.842;8.974;2024-01-30T04:00:23;26.88;;;12.10;;
69301;SDS011;56689;47.842;8.974;2024-01-30T04:02:49;25.77;;;11.90;;
69301;SDS011;56689;47.842;8.974;2024-01-30T04:05:16;24.35;;;11.77;;
69301;SDS011;56689;47.842;8.974;2024-01-30T04:07:41;25.43;;;12.20;;
69301;SDS011;56689;47.842;8.974;2024-01-30T04:10:07;24.80;;;11.77;;
69301;SDS011;56689;47.842;8.974;2024-01-30T04:12:33;24.27;;;11.57;;
69301;SDS011;56689;47.842;8.974;2024-01-30T04:14:58;22.67;;;10.93;;
69301;SDS011;56689;47.842;8.974;2024-01-30T04:17:24;23.35;;;11.65;;
69301;SDS011;56689;47.842;8.974;2024-01-30T04:19:49;22.95;;;10.90;;
69301;SDS011;56689;47.842;8.974;2024-01-30T04:22:15;32.00;;;12.20;;
69301;SDS011;56689;47.842;8.974;2024-01-30T04:24:40;24.03;;;11.13;;
69301;SDS011;56689;47.842;8.974;2024-01-30T04:27:05;25.35;;;11.50;;
69301;SDS011;56689;47.842;8.974;2024-01-30T04:29:31;26.20;;;11.45;;
69301;SDS011;56689;47.842;8.974;2024-01-30T04:31:59;27.27;;;11.47;;
69301;SDS011;56689;47.842;8.974;2024-01-30T04:34:24;23.90;;;11.27;;
69301;SDS011;56689;47.842;8.974;2024-01-30T04:36:50;35.27;;;13.10;;
69301;SDS011;56689;47.842;8.974;2024-01-30T04:39:15;39.30;;;13.37;;
69301;SDS011;56689;47.842;8.974;2024-01-30T04:41:41;44.87;;;14.10;;
69301;SDS011;56689;47.842;8.974;2024-01-30T04:44:06;46.03;;;16.20;;
69301;SDS011;56689;47.842;8.974;2024-01-30T04:46:32;44.63;;;16.60;;
69301;SDS011;56689;47.842;8.974;2024-01-30T04:48:59;52.40;;;15.73;;
69301;SDS011;56689;47.842;8.974;2024-01-30T04:51:24;40.10;;;15.23;;
69301;SDS011;56689;47.842;8.974;2024-01-30T04:53:50;44.63;;;15.93;;
69301;SDS011;56689;47.842;8.974;2024-01-30T04:56:15;47.30;;;16.50;;
69301;SDS011;56689;47.842;8.974;2024-01-30T04:58:41;44.72;;;15.45;;
69301;SDS011;56689;47.842;8.974;2024-01-30T05:01:06;37.47;;;15.47;;
69301;SDS011;56689;47.842;8.974;2024-01-30T05:03:35;39.40;;;15.10;;
69301;SDS011;56689;47.842;8.974;2024-01-30T05:06:00;43.60;;;15.50;;
69301;SDS011;56689;47.842;8.974;2024-01-30T05:08:26;42.38;;;15.90;;
69301;SDS011;56689;47.842;8.974;2024-01-30T05:10:51;39.85;;;16.25;;
69301;SDS011;56689;47.842;8.974;2024-01-30T05:13:17;38.53;;;15.10;;
69301;SDS011;56689;47.842;8.974;2024-01-30T05:15:42;42.53;;;16.47;;
69301;SDS011;56689;47.842;8.974;2024-01-30T05:18:08;40.33;;;17.50;;
69301;SDS011;56689;47.842;8.974;2024-01-30T05:20:33;41.70;;;15.98;;
69301;SDS011;56689;47.842;8.974;2024-01-30T05:22:58;42.03;;;15.57;;
69301;SDS011;56689;47.842;8.974;2024-01-30T05:25:24;44.50;;;16.40;;
69301;SDS011;56689;47.842;8.974;2024-01-30T05:27:49;40.67;;;15.93;;
69301;SDS011;56689;47.842;8.974;2024-01-30T05:30:15;37.97;;;17.00;;
69301;SDS011;56689;47.842;8.974;2024-01-30T05:32:40;36.58;;;16.08;;
69301;SDS011;56689;47.842;8.974;2024-01-30T05:35:06;40.13;;;16.53;;
69301;SDS011;56689;47.842;8.974;2024-01-30T05:37:33;36.95;;;15.82;;
69301;SDS011;56689;47.842;8.974;2024-01-30T05:39:58;34.33;;;15.23;;
69301;SDS011;56689;47.842;8.974;2024-01-30T05:42:23;34.13;;;14.20;;
69301;SDS011;56689;47.842;8.974;2024-01-30T05:44:49;36.50;;;15.25;;
69301;SDS011;56689;47.842;8.974;2024-01-30T05:47:15;35.47;;;15.30;;
69301;SDS011;56689;47.842;8.974;2024-01-30T05:49:40;30.70;;;13.65;;
69301;SDS011;56689;47.842;8.974;2024-01-30T05:52:06;35.35;;;14.60;;
69301;SDS011;56689;47.842;8.974;2024-01-30T05:54:32;35.85;;;14.45;;
69301;SDS011;56689;47.842;8.974;2024-01-30T05:56:57;37.70;;;14.80;;
69301;SDS011;56689;47.842;8.974;2024-01-30T05:59:23;35.57;;;15.00;;
69301;SDS011;56689;47.842;8.974;2024-01-30T06:01:48;36.70;;;15.33;;
69301;SDS011;56689;47.842;8.974;2024-01-30T06:04:14;32.22;;;13.75;;
69301;SDS011;56689;47.842;8.974;2024-01-30T06:06:39;35.78;;;14.93;;
69301;SDS011;56689;47.842;8.974;2024-01-30T06:09:05;38.83;;;14.87;;
69301;SDS011;56689;47.842;8.974;2024-01-30T06:11:31;38.30;;;15.88;;
69301;SDS011;56689;47.842;8.974;2024-01-30T06:13:56;31.60;;;14.53;;
69301;SDS011;56689;47.842;8.974;2024-01-30T06:16:21;39.57;;;15.60;;
69301;SDS011;56689;47.842;8.974;2024-01-30T06:18:47;75.93;;;22.90;;
69301;SDS011;56689;47.842;8.974;2024-01-30T06:21:13;68.47;;;23.43;;
69301;SDS011;56689;47.842;8.974;2024-01-30T06:23:39;95.35;;;24.10;;
69301;SDS011;56689;47.842;8.974;2024-01-30T06:26:05;87.28;;;23.45;;
69301;SDS011;56689;47.842;8.974;2024-01-30T06:28:31;83.93;;;24.60;;
69301;SDS011;56689;47.842;8.974;2024-01-30T06:30:57;83.10;;;24.15;;
69301;SDS011;56689;47.842;8.974;2024-01-30T06:33:22;81.07;;;23.70;;
69301;SDS011;56689;47.842;8.974;2024-01-30T06:35:47;75.23;;;24.10;;
69301;SDS011;56689;47.842;8.974;2024-01-30T06:38:13;77.83;;;24.17;;
69301;SDS011;56689;47.842;8.974;2024-01-30T06:40:40;65.75;;;21.52;;
69301;SDS011;56689;47.842;8.974;2024-01-30T06:43:06;70.47;;;22.35;;
69301;SDS011;56689;47.842;8.974;2024-01-30T06:45:32;65.23;;;21.40;;
69301;SDS011;56689;47.842;8.974;2024-01-30T06:47:59;62.67;;;21.98;;
69301;SDS011;56689;47.842;8.974;2024-01-30T06:50:24;63.63;;;21.00;;
69301;SDS011;56689;47.842;8.974;2024-01-30T06:52:50;59.87;;;20.73;;
69301;SDS011;56689;47.842;8.974;2024-01-30T06:55:16;47.87;;;18.40;;
69301;SDS011;56689;47.842;8.974;2024-01-30T06:57:41;50.05;;;18.98;;
69301;SDS011;56689;47.842;8.974;2024-01-30T07:00:07;50.57;;;19.33;;
69301;SDS011;56689;47.842;8.974;2024-01-30T07:02:32;51.08;;;17.65;;
69301;SDS011;56689;47.842;8.974;2024-01-30T07:04:58;45.27;;;17.20;;
69301;SDS011;56689;47.842;8.974;2024-01-30T07:07:23;50.23;;;18.80;;
69301;SDS011;56689;47.842;8.974;2024-01-30T07:09:49;48.70;;;19.17;;
69301;SDS011;56689;47.842;8.974;2024-01-30T07:12:17;49.67;;;18.75;;
69301;SDS011;56689;47.842;8.974;2024-01-30T07:14:43;48.38;;;19.25;;
69301;SDS011;56689;47.842;8.974;2024-01-30T07:17:08;46.08;;;18.25;;
69301;SDS011;56689;47.842;8.974;2024-01-30T07:19:34;42.50;;;17.07;;
69301;SDS011;56689;47.842;8.974;2024-01-30T07:22:00;39.73;;;17.27;;
69301;SDS011;56689;47.842;8.974;2024-01-30T07:24:26;42.42;;;16.27;;
69301;SDS011;56689;47.842;8.974;2024-01-30T07:26:51;43.30;;;16.43;;
69301;SDS011;56689;47.842;8.974;2024-01-30T07:29:17;39.88;;;16.30;;
69301;SDS011;56689;47.842;8.974;2024-01-30T07:31:43;40.08;;;16.83;;
69301;SDS011;56689;47.842;8.974;2024-01-30T07:34:08;46.05;;;18.15;;
69301;SDS011;56689;47.842;8.974;2024-01-30T07:36:34;45.03;;;16.90;;
69301;SDS011;56689;47.842;8.974;2024-01-30T07:38:59;43.47;;;17.20;;
69301;SDS011;56689;47.842;8.974;2024-01-30T07:41:25;45.38;;;17.73;;
69301;SDS011;56689;47.842;8.974;2024-01-30T07:43:50;44.17;;;17.92;;
69301;SDS011;56689;47.842;8.974;2024-01-30T07:46:16;41.97;;;17.00;;
69301;SDS011;56689;47.842;8.974;2024-01-30T07:48:41;44.63;;;17.10;;
69301;SDS011;56689;47.842;8.974;2024-01-30T07:51:07;42.33;;;17.35;;
69301;SDS011;56689;47.842;8.974;2024-01-30T07:53:32;41.77;;;17.33;;
69301;SDS011;56689;47.842;8.974;2024-01-30T07:55:58;39.77;;;17.07;;
69301;SDS011;56689;47.842;8.974;2024-01-30T07:58:23;45.88;;;17.35;;
69301;SDS011;56689;47.842;8.974;2024-01-30T08:00:49;42.70;;;18.57;;
69301;SDS011;56689;47.842;8.974;2024-01-30T08:03:16;41.22;;;17.23;;
69301;SDS011;56689;47.842;8.974;2024-01-30T08:05:43;45.97;;;17.53;;
69301;SDS011;56689;47.842;8.974;2024-01-30T08:08:08;47.55;;;17.67;;
69301;SDS011;56689;47.842;8.974;2024-01-30T08:10:34;46.60;;;19.13;;
69301;SDS011;56689;47.842;8.974;2024-01-30T08:12:59;46.70;;;19.10;;
69301;SDS011;56689;47.842;8.974;2024-01-30T08:15:25;45.10;;;18.50;;
69301;SDS011;56689;47.842;8.974;2024-01-30T08:17:50;44.70;;;18.45;;
69301;SDS011;56689;47.842;8.974;2024-01-30T08:20:20;46.87;;;18.83;;
69301;SDS011;56689;47.842;8.974;2024-01-30T08:22:46;42.50;;;18.65;;
69301;SDS011;56689;47.842;8.974;2024-01-30T08:25:19;43.70;;;16.60;;
69301;SDS011;56689;47.842;8.974;2024-01-30T08:27:46;42.45;;;16.27;;
69301;SDS011;56689;47.842;8.974;2024-01-30T08:30:12;44.13;;;17.13;;
69301;SDS011;56689;47.842;8.974;2024-01-30T08:32:38;37.20;;;16.47;;
69301;SDS011;56689;47.842;8.974;2024-01-30T08:35:04;45.58;;;17.27;;
69301;SDS011;56689;47.842;8.974;2024-01-30T08:37:29;42.88;;;17.73;;
69301;SDS011;56689;47.842;8.974;2024-01-30T08:39:55;62.70;;;21.93;;
69301;SDS011;56689;47.842;8.974;2024-01-30T08:42:20;77.70;;;22.80;;
69301;SDS011;56689;47.842;8.974;2024-01-30T08:44:47;75.85;;;22.48;;
69301;SDS011;56689;47.842;8.974;2024-01-30T08:47:14;75.63;;;23.03;;
69301;SDS011;56689;47.842;8.974;2024-01-30T08:49:41;79.47;;;22.58;;
69301;SDS011;56689;47.842;8.974;2024-01-30T08:52:08;74.82;;;22.42;;
69301;SDS011;56689;47.842;8.974;2024-01-30T08:54:33;76.70;;;24.20;;
69301;SDS011;56689;47.842;8.974;2024-01-30T08:57:00;72.28;;;22.92;;
69301;SDS011;56689;47.842;8.974;2024-01-30T08:59:25;68.73;;;22.60;;
69301;SDS011;56689;47.842;8.974;2024-01-30T09:01:51;68.78;;;21.85;;
69301;SDS011;56689;47.842;8.974;2024-01-30T09:04:19;68.47;;;20.40;;
69301;SDS011;56689;47.842;8.974;2024-01-30T09:06:45;66.57;;;21.52;;
69301;SDS011;56689;47.842;8.974;2024-01-30T09:09:10;64.60;;;21.70;;
69301;SDS011;56689;47.842;8.974;2024-01-30T09:11:35;65.33;;;22.60;;
69301;SDS011;56689;47.842;8.974;2024-01-30T09:14:01;71.33;;;23.63;;
69301;SDS011;56689;47.842;8.974;2024-01-30T09:16:27;63.22;;;23.80;;
69301;SDS011;56689;47.842;8.974;2024-01-30T09:18:52;57.90;;;22.83;;
69301;SDS011;56689;47.842;8.974;2024-01-30T09:21:17;65.37;;;23.30;;
69301;SDS011;56689;47.842;8.974;2024-01-30T09:23:43;58.43;;;21.87;;
69301;SDS011;56689;47.842;8.974;2024-01-30T09:26:08;65.47;;;23.07;;
69301;SDS011;56689;47.842;8.974;2024-01-30T09:28:34;61.75;;;21.90;;
69301;SDS011;56689;47.842;8.974;2024-01-30T09:30:59;73.05;;;25.75;;
69301;SDS011;56689;47.842;8.974;2024-01-30T09:33:25;85.77;;;27.53;;
69301;SDS011;56689;47.842;8.974;2024-01-30T09:35:50;78.97;;;26.47;;
69301;SDS011;56689;47.842;8.974;2024-01-30T09:38:16;75.68;;;24.77;;
69301;SDS011;56689;47.842;8.974;2024-01-30T09:40:41;76.43;;;25.27;;
69301;SDS011;56689;47.842;8.974;2024-01-30T09:43:09;77.20;;;25.45;;
69301;SDS011;56689;47.842;8.974;2024-01-30T09:45:43;73.45;;;26.00;;
69301;SDS011;56689;47.842;8.974;2024-01-30T09:48:10;77.03;;;27.10;;
69301;SDS011;56689;47.842;8.974;2024-01-30T09:50:36;82.25;;;28.83;;
69301;SDS011;56689;47.842;8.974;2024-01-30T09:53:02;72.30;;;28.77;;
69301;SDS011;56689;47.842;8.974;2024-01-30T09:55:29;78.97;;;29.27;;
69301;SDS011;56689;47.842;8.974;2024-01-30T09:57:54;81.63;;;30.00;;
69301;SDS011;56689;47.842;8.974;2024-01-30T10:00:20;79.23;;;30.37;;
69301;SDS011;56689;47.842;8.974;2024-01-30T10:02:47;73.57;;;28.75;;
69301;SDS011;56689;47.842;8.974;2024-01-30T10:05:15;72.40;;;28.47;;
69301;SDS011;56689;47.842;8.974;2024-01-30T10:07:52;73.18;;;29.67;;
69301;SDS011;56689;47.842;8.974;2024-01-30T10:10:19;90.40;;;33.38;;
69301;SDS011;56689;47.842;8.974;2024-01-30T10:12:46;81.50;;;29.37;;
69301;SDS011;56689;47.842;8.974;2024-01-30T10:15:11;83.90;;;30.77;;
69301;SDS011;56689;47.842;8.974;2024-01-30T10:17:38;81.00;;;29.97;;
69301;SDS011;56689;47.842;8.974;2024-01-30T10:20:04;87.82;;;30.60;;
69301;SDS011;56689;47.842;8.974;2024-01-30T10:22:30;79.30;;;29.17;;
69301;SDS011;56689;47.842;8.974;2024-01-30T10:24:56;62.42;;;25.10;;
69301;SDS011;56689;47.842;8.974;2024-01-30T10:27:27;54.23;;;22.53;;
69301;SDS011;56689;47.842;8.974;2024-01-30T10:29:54;59.00;;;24.70;;
69301;SDS011;56689;47.842;8.974;2024-01-30T10:32:20;58.23;;;24.27;;
69301;SDS011;56689;47.842;8.974;2024-01-30T10:34:46;70.72;;;26.98;;
69301;SDS011;56689;47.842;8.974;2024-01-30T10:37:11;56.83;;;24.53;;
69301;SDS011;56689;47.842;8.974;2024-01-30T10:39:43;67.32;;;26.70;;
69301;SDS011;56689;47.842;8.974;2024-01-30T10:42:13;61.13;;;27.02;;
69301;SDS011;56689;47.842;8.974;2024-01-30T10:47:27;71.78;;;27.88;;
69301;SDS011;56689;47.842;8.974;2024-01-30T10:49:54;69.68;;;28.95;;
69301;SDS011;56689;47.842;8.974;2024-01-30T10:52:20;71.28;;;28.63;;
69301;SDS011;56689;47.842;8.974;2024-01-30T10:54:46;63.83;;;27.60;;
69301;SDS011;56689;47.842;8.974;2024-01-30T10:57:12;69.78;;;29.08;;
69301;SDS011;56689;47.842;8.974;2024-01-30T10:59:40;86.75;;;33.45;;
69301;SDS011;56689;47.842;8.974;2024-01-30T11:02:07;74.95;;;33.10;;
69301;SDS011;56689;47.842;8.974;2024-01-30T11:04:38;75.05;;;31.88;;
69301;SDS011;56689;47.842;8.974;2024-01-30T11:09:47;73.72;;;31.27;;
69301;SDS011;56689;47.842;8.974;2024-01-30T11:12:14;83.35;;;31.67;;
69301;SDS011;56689;47.842;8.974;2024-01-30T11:14:39;69.47;;;30.00;;
69301;SDS011;56689;47.842;8.974;2024-01-30T11:17:05;71.97;;;30.08;;
69301;SDS011;56689;47.842;8.974;2024-01-30T11:19:31;74.77;;;31.53;;
69301;SDS011;56689;47.842;8.974;2024-01-30T11:21:57;76.38;;;30.90;;
69301;SDS011;56689;47.842;8.974;2024-01-30T11:24:23;72.93;;;29.10;;
69301;SDS011;56689;47.842;8.974;2024-01-30T11:26:49;72.97;;;30.45;;
69301;SDS011;56689;47.842;8.974;2024-01-30T11:29:20;67.07;;;30.20;;
69301;SDS011;56689;47.842;8.974;2024-01-30T11:31:53;72.10;;;29.70;;
69301;SDS011;56689;47.842;8.974;2024-01-30T11:34:22;72.20;;;30.05;;
69301;SDS011;56689;47.842;8.974;2024-01-30T11:36:51;62.33;;;28.52;;
69301;SDS011;56689;47.842;8.974;2024-01-30T11:39:23;70.93;;;30.88;;
69301;SDS011;56689;47.842;8.974;2024-01-30T11:41:53;72.30;;;33.55;;
69301;SDS011;56689;47.842;8.974;2024-01-30T11:44:19;76.22;;;34.00;;
69301;SDS011;56689;47.842;8.974;2024-01-30T11:46:47;80.68;;;35.90;;
69301;SDS011;56689;47.842;8.974;2024-01-30T11:49:13;74.43;;;34.85;;
69301;SDS011;56689;47.842;8.974;2024-01-30T11:51:39;78.88;;;34.55;;
69301;SDS011;56689;47.842;8.974;2024-01-30T11:54:04;77.97;;;33.93;;
69301;SDS011;56689;47.842;8.974;2024-01-30T11:56:30;73.47;;;32.90;;
69301;SDS011;56689;47.842;8.974;2024-01-30T11:58:55;69.40;;;32.97;;
69301;SDS011;56689;47.842;8.974;2024-01-30T12:01:20;67.53;;;31.47;;
69301;SDS011;56689;47.842;8.974;2024-01-30T12:03:49;70.90;;;29.80;;
69301;SDS011;56689;47.842;8.974;2024-01-30T12:06:15;70.50;;;30.42;;
69301;SDS011;56689;47.842;8.974;2024-01-30T12:08:41;67.32;;;29.23;;
69301;SDS011;56689;47.842;8.974;2024-01-30T12:11:07;66.38;;;30.77;;
69301;SDS011;56689;47.842;8.974;2024-01-30T12:13:32;72.30;;;31.27;;
69301;SDS011;56689;47.842;8.974;2024-01-30T12:15:58;70.80;;;31.00;;
69301;SDS011;56689;47.842;8.974;2024-01-30T12:18:24;71.78;;;31.45;;
69301;SDS011;56689;47.842;8.974;2024-01-30T12:20:59;68.30;;;31.80;;
69301;SDS011;56689;47.842;8.974;2024-01-30T12:23:26;65.47;;;30.83;;
69301;SDS011;56689;47.842;8.974;2024-01-30T12:25:52;69.15;;;29.92;;
69301;SDS011;56689;47.842;8.974;2024-01-30T12:28:19;64.20;;;29.90;;
69301;SDS011;56689;47.842;8.974;2024-01-30T12:30:45;63.40;;;28.80;;
69301;SDS011;56689;47.842;8.974;2024-01-30T12:33:15;65.97;;;28.97;;
69301;SDS011;56689;47.842;8.974;2024-01-30T12:35:45;65.25;;;29.70;;
69301;SDS011;56689;47.842;8.974;2024-01-30T12:38:12;63.23;;;27.73;;
69301;SDS011;56689;47.842;8.974;2024-01-30T12:40:37;62.85;;;27.98;;
69301;SDS011;56689;47.842;8.974;2024-01-30T12:43:03;54.43;;;25.13;;
69301;SDS011;56689;47.842;8.974;2024-01-30T12:45:28;48.17;;;23.83;;
69301;SDS011;56689;47.842;8.974;2024-01-30T12:47:55;46.65;;;22.42;;
69301;SDS011;56689;47.842;8.974;2024-01-30T12:50:20;45.28;;;21.75;;
69301;SDS011;56689;47.842;8.974;2024-01-30T12:52:46;49.90;;;22.90;;
69301;SDS011;56689;47.842;8.974;2024-01-30T12:55:11;41.40;;;19.73;;
69301;SDS011;56689;47.842;8.974;2024-01-30T12:57:37;46.28;;;20.42;;
69301;SDS011;56689;47.842;8.974;2024-01-30T13:00:04;41.10;;;19.77;;
69301;SDS011;56689;47.842;8.974;2024-01-30T13:02:33;44.40;;;20.73;;
69301;SDS011;56689;47.842;8.974;2024-01-30T13:05:02;42.78;;;21.30;;
69301;SDS011;56689;47.842;8.974;2024-01-30T13:07:28;40.70;;;19.57;;
69301;SDS011;56689;47.842;8.974;2024-01-30T13:09:53;40.60;;;19.20;;
69301;SDS011;56689;47.842;8.974;2024-01-30T13:12:18;41.27;;;20.37;;
69301;SDS011;56689;47.842;8.974;2024-01-30T13:14:44;42.10;;;19.13;;
69301;SDS011;56689;47.842;8.974;2024-01-30T13:17:09;35.00;;;17.80;;
69301;SDS011;56689;47.842;8.974;2024-01-30T13:19:35;34.03;;;18.53;;
69301;SDS011;56689;47.842;8.974;2024-01-30T13:22:00;41.55;;;20.40;;
69301;SDS011;56689;47.842;8.974;2024-01-30T13:24:26;39.10;;;19.97;;
69301;SDS011;56689;47.842;8.974;2024-01-30T13:26:51;34.38;;;18.25;;
69301;SDS011;56689;47.842;8.974;2024-01-30T13:29:18;33.30;;;16.83;;
69301;SDS011;56689;47.842;8.974;2024-01-30T13:31:43;34.97;;;17.15;;
69301;SDS011;56689;47.842;8.974;2024-01-30T13:34:11;31.00;;;14.73;;
69301;SDS011;56689;47.842;8.974;2024-01-30T13:36:37;28.95;;;15.07;;
69301;SDS011;56689;47.842;8.974;2024-01-30T13:39:04;28.00;;;15.45;;
69301;SDS011;56689;47.842;8.974;2024-01-30T13:41:33;27.00;;;13.93;;
69301;SDS011;56689;47.842;8.974;2024-01-30T13:43:58;22.97;;;13.03;;
69301;SDS011;56689;47.842;8.974;2024-01-30T13:46:24;27.87;;;14.20;;
69301;SDS011;56689;47.842;8.974;2024-01-30T13:48:50;29.70;;;15.93;;
69301;SDS011;56689;47.842;8.974;2024-01-30T13:51:15;30.05;;;16.33;;
69301;SDS011;56689;47.842;8.974;2024-01-30T13:53:42;26.67;;;15.15;;
69301;SDS011;56689;47.842;8.974;2024-01-30T13:56:07;27.67;;;16.23;;
69301;SDS011;56689;47.842;8.974;2024-01-30T13:58:33;37.60;;;21.38;;
69301;SDS011;56689;47.842;8.974;2024-01-30T14:01:01;37.58;;;21.65;;
69301;SDS011;56689;47.842;8.974;2024-01-30T14:03:26;37.33;;;21.07;;
69301;SDS011;56689;47.842;8.974;2024-01-30T14:05:52;37.00;;;22.17;;
69301;SDS011;56689;47.842;8.974;2024-01-30T14:08:18;33.25;;;19.30;;
69301;SDS011;56689;47.842;8.974;2024-01-30T14:10:45;28.67;;;15.40;;
69301;SDS011;56689;47.842;8.974;2024-01-30T14:13:10;30.03;;;15.50;;
69301;SDS011;56689;47.842;8.974;2024-01-30T14:15:36;27.15;;;14.55;;
69301;SDS011;56689;47.842;8.974;2024-01-30T14:18:02;24.53;;;14.43;;
69301;SDS011;56689;47.842;8.974;2024-01-30T14:20:27;25.23;;;13.63;;